KHOT

Memorial Field Airport

Hot Springs, Arkansas, USA
KHOT 212320Z 2200/2224 12012G20KT P6SM BKN250 FM220600 16010G20KT P6SM OVC030 WS020/19045KT FM221000 14010G16KT 6SM -DZ BR OVC010 WS020/19045KT TEMPO 2221/2224 3SM -SHRA BR OVC007
Issued Valid From Valid To
Jan-21 @ 23:20 UTC
(47 minutes ago)
Jan-22 @ 00:00 UTC
(7 minutes ago)
Jan-23 @ 00:00 UTC
(in 24 hours)
Jan-22 @ 00:00 to Jan-22 @ 06:00
KHOT 212320Z 2200/2224 12012G20KT P6SM BKN250
Wind Visibility Clouds
120° at 12 knots
 Gusting to 20 knots
Greater than 6 miles
  • Broken at 25,000' AGL
From Jan-22 @ 06:00 to Jan-22 @ 10:00
FM220600 16010G20KT P6SM OVC030 WS020/19045KT
Wind Visibility Clouds
160° at 10 knots
 Gusting to 20 knots
 Wind shear 2,000' AGL from 190° at 45 knots
Greater than 6 miles
  • Overcast at 3,000' AGL
From Jan-22 @ 10:00 to Jan-23 @ 00:00
FM221000 14010G16KT 6SM -DZ BR OVC010 WS020/19045KT
Wind Visibility Clouds Conditions
140° at 10 knots
 Gusting to 16 knots
 Wind shear 2,000' AGL from 190° at 45 knots
6 miles
  • Overcast at 1,000' AGL
  • Light Drizzle
  • Mist
Temporary Jan-22 @ 21:00 to Jan-23 @ 00:00
TEMPO 2221/2224 3SM -SHRA BR OVC007
Visibility Clouds Conditions
3 miles
  • Overcast at 700' AGL
  • Light Rain
  • Mist
KHOT 212320Z 2200/2224 12012G20KT P6SM BKN250 FM220600 16010G20KT P6SM OVC030 WS020/19045KT FM221000 14010G16KT 6SM -DZ BR OVC010 WS020/19045KT TEMPO 2221/2224 3SM -SHRA BR OVC007
Issued Jan-21 @ 23:20 UTC
(47 minutes ago)
Valid From Jan-22 @ 00:00 UTC
(7 minutes ago)
Valid To Jan-23 @ 00:00 UTC
(in 24 hours)
Jan-22 @ 00:00 - Jan-22 @ 06:00
Wind Visibility
120° at 12 knots
 Gusting to 20 knots
Greater than 6 miles
Clouds
  • Broken at 25,000' AGL
From Jan-22 @ 06:00 - Jan-22 @ 10:00
Wind Visibility
160° at 10 knots
 Gusting to 20 knots
Greater than 6 miles
Clouds
  • Overcast at 3,000' AGL
From Jan-22 @ 10:00 - Jan-23 @ 00:00
Wind Visibility
140° at 10 knots
 Gusting to 16 knots
6 miles
Clouds
  • Overcast at 1,000' AGL
Conditions
  • Light Drizzle
  • Mist
Temporary Jan-22 @ 21:00 - Jan-23 @ 00:00
Clouds
  • Overcast at 700' AGL
Conditions
  • Light Rain
  • Mist